sensor_id;sensor_type;location;lat;lon;timestamp;temperature;humidity
4759;DHT22;2393;50.560;12.636;2023-07-20T00:06:41;15.90;99.90
4759;DHT22;2393;50.560;12.636;2023-07-20T00:09:10;15.90;99.90
4759;DHT22;2393;50.560;12.636;2023-07-20T00:11:39;15.90;99.90
4759;DHT22;2393;50.560;12.636;2023-07-20T00:14:07;15.90;99.90
4759;DHT22;2393;50.560;12.636;2023-07-20T00:16:36;15.90;99.90
4759;DHT22;2393;50.560;12.636;2023-07-20T00:19:04;15.90;99.90
4759;DHT22;2393;50.560;12.636;2023-07-20T00:22:12;15.90;99.90
4759;DHT22;2393;50.560;12.636;2023-07-20T00:24:42;15.90;99.90
4759;DHT22;2393;50.560;12.636;2023-07-20T00:27:10;15.90;99.90
4759;DHT22;2393;50.560;12.636;2023-07-20T00:29:38;15.90;99.90
4759;DHT22;2393;50.560;12.636;2023-07-20T00:32:08;15.90;99.90
4759;DHT22;2393;50.560;12.636;2023-07-20T00:34:41;15.90;99.90
4759;DHT22;2393;50.560;12.636;2023-07-20T00:37:09;15.90;99.90
4759;DHT22;2393;50.560;12.636;2023-07-20T00:39:59;15.80;99.90
4759;DHT22;2393;50.560;12.636;2023-07-20T00:57:01;15.60;99.90
4759;DHT22;2393;50.560;12.636;2023-07-20T00:59:29;15.60;99.90
4759;DHT22;2393;50.560;12.636;2023-07-20T01:01:57;15.60;99.90
4759;DHT22;2393;50.560;12.636;2023-07-20T01:04:27;15.60;99.90
4759;DHT22;2393;50.560;12.636;2023-07-20T01:07:00;15.60;99.90
4759;DHT22;2393;50.560;12.636;2023-07-20T01:09:37;15.60;99.90
4759;DHT22;2393;50.560;12.636;2023-07-20T01:12:13;15.60;99.90
4759;DHT22;2393;50.560;12.636;2023-07-20T01:14:48;15.60;99.90
4759;DHT22;2393;50.560;12.636;2023-07-20T01:17:24;15.60;99.90
4759;DHT22;2393;50.560;12.636;2023-07-20T01:19:53;15.60;99.90
4759;DHT22;2393;50.560;12.636;2023-07-20T01:22:50;15.60;99.90
4759;DHT22;2393;50.560;12.636;2023-07-20T01:26:02;15.60;99.90
4759;DHT22;2393;50.560;12.636;2023-07-20T01:31:52;15.50;99.90
4759;DHT22;2393;50.560;12.636;2023-07-20T01:34:25;15.50;99.90
4759;DHT22;2393;50.560;12.636;2023-07-20T01:36:59;15.40;99.90
4759;DHT22;2393;50.560;12.636;2023-07-20T01:39:29;15.40;99.90
4759;DHT22;2393;50.560;12.636;2023-07-20T01:42:13;15.40;99.90
4759;DHT22;2393;50.560;12.636;2023-07-20T01:45:21;15.40;99.90
4759;DHT22;2393;50.560;12.636;2023-07-20T01:47:51;15.40;99.90
4759;DHT22;2393;50.560;12.636;2023-07-20T01:50:19;15.40;99.90
4759;DHT22;2393;50.560;12.636;2023-07-20T01:52:48;15.40;99.90
4759;DHT22;2393;50.560;12.636;2023-07-20T01:55:17;15.40;99.90
4759;DHT22;2393;50.560;12.636;2023-07-20T01:57:45;15.40;99.90
4759;DHT22;2393;50.560;12.636;2023-07-20T02:00:15;15.30;99.90
4759;DHT22;2393;50.560;12.636;2023-07-20T02:02:46;15.30;99.90
4759;DHT22;2393;50.560;12.636;2023-07-20T02:05:16;15.30;99.90
4759;DHT22;2393;50.560;12.636;2023-07-20T02:07:47;15.30;99.90
4759;DHT22;2393;50.560;12.636;2023-07-20T02:10:19;15.20;99.90
4759;DHT22;2393;50.560;12.636;2023-07-20T02:12:51;15.20;99.90
4759;DHT22;2393;50.560;12.636;2023-07-20T02:15:22;15.20;99.90
4759;DHT22;2393;50.560;12.636;2023-07-20T02:17:51;15.10;99.90
4759;DHT22;2393;50.560;12.636;2023-07-20T02:20:22;15.10;99.90
4759;DHT22;2393;50.560;12.636;2023-07-20T02:22:54;15.10;99.90
4759;DHT22;2393;50.560;12.636;2023-07-20T02:25:23;15.10;99.90
4759;DHT22;2393;50.560;12.636;2023-07-20T02:27:52;15.00;99.90
4759;DHT22;2393;50.560;12.636;2023-07-20T02:30:21;15.00;99.90
4759;DHT22;2393;50.560;12.636;2023-07-20T02:32:50;15.00;99.90
4759;DHT22;2393;50.560;12.636;2023-07-20T02:35:18;15.00;99.90
4759;DHT22;2393;50.560;12.636;2023-07-20T02:37:48;15.00;99.90
4759;DHT22;2393;50.560;12.636;2023-07-20T02:40:17;14.90;99.90
4759;DHT22;2393;50.560;12.636;2023-07-20T02:42:47;14.90;99.90
4759;DHT22;2393;50.560;12.636;2023-07-20T02:45:16;14.90;99.90
4759;DHT22;2393;50.560;12.636;2023-07-20T02:47:45;14.90;99.90
4759;DHT22;2393;50.560;12.636;2023-07-20T02:50:13;14.80;99.90
4759;DHT22;2393;50.560;12.636;2023-07-20T02:52:42;14.80;99.90
4759;DHT22;2393;50.560;12.636;2023-07-20T02:55:12;14.70;99.90
4759;DHT22;2393;50.560;12.636;2023-07-20T02:57:41;14.70;99.90
4759;DHT22;2393;50.560;12.636;2023-07-20T03:00:10;14.60;99.90
4759;DHT22;2393;50.560;12.636;2023-07-20T03:02:43;14.60;99.90
4759;DHT22;2393;50.560;12.636;2023-07-20T03:05:15;14.60;99.90
4759;DHT22;2393;50.560;12.636;2023-07-20T03:07:44;14.50;99.90
4759;DHT22;2393;50.560;12.636;2023-07-20T03:10:14;14.50;99.90
4759;DHT22;2393;50.560;12.636;2023-07-20T03:12:43;14.40;99.90
4759;DHT22;2393;50.560;12.636;2023-07-20T03:15:12;14.40;99.90
4759;DHT22;2393;50.560;12.636;2023-07-20T03:17:41;14.40;99.90
4759;DHT22;2393;50.560;12.636;2023-07-20T03:20:11;14.30;99.90
4759;DHT22;2393;50.560;12.636;2023-07-20T03:22:40;14.30;99.90
4759;DHT22;2393;50.560;12.636;2023-07-20T03:25:10;14.30;99.90
4759;DHT22;2393;50.560;12.636;2023-07-20T03:27:40;14.30;99.90
4759;DHT22;2393;50.560;12.636;2023-07-20T03:30:09;14.20;99.90
4759;DHT22;2393;50.560;12.636;2023-07-20T03:32:38;14.20;99.90
4759;DHT22;2393;50.560;12.636;2023-07-20T03:35:07;14.10;99.90
4759;DHT22;2393;50.560;12.636;2023-07-20T03:37:36;14.10;99.90
4759;DHT22;2393;50.560;12.636;2023-07-20T03:40:07;14.00;99.90
4759;DHT22;2393;50.560;12.636;2023-07-20T03:42:36;14.00;99.90
4759;DHT22;2393;50.560;12.636;2023-07-20T03:45:08;14.00;99.90
4759;DHT22;2393;50.560;12.636;2023-07-20T03:47:36;13.90;99.90
4759;DHT22;2393;50.560;12.636;2023-07-20T03:50:06;13.90;99.90
4759;DHT22;2393;50.560;12.636;2023-07-20T03:52:37;13.90;99.90
4759;DHT22;2393;50.560;12.636;2023-07-20T03:55:07;13.90;99.90
4759;DHT22;2393;50.560;12.636;2023-07-20T03:57:35;14.00;99.90
4759;DHT22;2393;50.560;12.636;2023-07-20T04:00:08;14.00;99.90
4759;DHT22;2393;50.560;12.636;2023-07-20T04:02:40;14.00;99.90
4759;DHT22;2393;50.560;12.636;2023-07-20T04:05:09;14.00;99.90
4759;DHT22;2393;50.560;12.636;2023-07-20T04:07:37;14.10;99.90
4759;DHT22;2393;50.560;12.636;2023-07-20T04:10:07;14.10;99.90
4759;DHT22;2393;50.560;12.636;2023-07-20T04:12:36;14.10;99.90
4759;DHT22;2393;50.560;12.636;2023-07-20T04:15:08;14.10;99.90
4759;DHT22;2393;50.560;12.636;2023-07-20T04:17:36;14.20;99.90
4759;DHT22;2393;50.560;12.636;2023-07-20T04:20:06;14.20;99.90
4759;DHT22;2393;50.560;12.636;2023-07-20T04:22:35;14.30;99.90
4759;DHT22;2393;50.560;12.636;2023-07-20T04:25:07;14.40;99.90
4759;DHT22;2393;50.560;12.636;2023-07-20T04:27:37;14.40;99.90
4759;DHT22;2393;50.560;12.636;2023-07-20T04:30:10;14.50;99.90
4759;DHT22;2393;50.560;12.636;2023-07-20T04:32:39;14.60;99.90
4759;DHT22;2393;50.560;12.636;2023-07-20T04:35:17;14.70;99.90
4759;DHT22;2393;50.560;12.636;2023-07-20T04:37:48;14.80;99.90
4759;DHT22;2393;50.560;12.636;2023-07-20T04:40:19;14.90;99.90
4759;DHT22;2393;50.560;12.636;2023-07-20T04:42:48;15.00;99.90
4759;DHT22;2393;50.560;12.636;2023-07-20T04:45:19;15.20;99.90
4759;DHT22;2393;50.560;12.636;2023-07-20T04:47:50;15.30;99.90
4759;DHT22;2393;50.560;12.636;2023-07-20T04:50:19;15.40;99.90
4759;DHT22;2393;50.560;12.636;2023-07-20T04:52:49;15.50;99.90
4759;DHT22;2393;50.560;12.636;2023-07-20T04:55:20;15.70;99.90
4759;DHT22;2393;50.560;12.636;2023-07-20T04:57:48;15.80;99.90
4759;DHT22;2393;50.560;12.636;2023-07-20T05:00:20;15.90;99.90
4759;DHT22;2393;50.560;12.636;2023-07-20T05:03:03;15.90;99.90
4759;DHT22;2393;50.560;12.636;2023-07-20T05:05:32;15.90;99.90
4759;DHT22;2393;50.560;12.636;2023-07-20T05:08:01;16.00;99.90
4759;DHT22;2393;50.560;12.636;2023-07-20T05:10:30;16.00;99.90
4759;DHT22;2393;50.560;12.636;2023-07-20T05:12:59;16.00;99.90
4759;DHT22;2393;50.560;12.636;2023-07-20T05:15:29;16.00;99.90
4759;DHT22;2393;50.560;12.636;2023-07-20T05:17:59;16.10;99.90
4759;DHT22;2393;50.560;12.636;2023-07-20T05:20:28;16.20;99.90
4759;DHT22;2393;50.560;12.636;2023-07-20T05:23:00;16.10;99.90
4759;DHT22;2393;50.560;12.636;2023-07-20T05:25:29;16.20;99.90
4759;DHT22;2393;50.560;12.636;2023-07-20T05:27:58;16.20;99.90
4759;DHT22;2393;50.560;12.636;2023-07-20T05:30:28;16.30;99.90
4759;DHT22;2393;50.560;12.636;2023-07-20T05:32:57;16.30;99.90
4759;DHT22;2393;50.560;12.636;2023-07-20T05:35:26;16.30;99.90
4759;DHT22;2393;50.560;12.636;2023-07-20T05:37:55;16.30;99.90
4759;DHT22;2393;50.560;12.636;2023-07-20T05:40:23;16.30;99.90
4759;DHT22;2393;50.560;12.636;2023-07-20T05:42:52;16.40;99.90
4759;DHT22;2393;50.560;12.636;2023-07-20T05:45:23;16.40;99.90
4759;DHT22;2393;50.560;12.636;2023-07-20T05:47:54;16.50;99.90
4759;DHT22;2393;50.560;12.636;2023-07-20T05:50:22;16.50;99.90
4759;DHT22;2393;50.560;12.636;2023-07-20T05:52:52;16.50;99.90
4759;DHT22;2393;50.560;12.636;2023-07-20T05:55:21;16.60;99.90
4759;DHT22;2393;50.560;12.636;2023-07-20T05:57:49;16.60;99.90
4759;DHT22;2393;50.560;12.636;2023-07-20T06:00:19;16.70;99.90
4759;DHT22;2393;50.560;12.636;2023-07-20T06:02:55;16.70;99.90
4759;DHT22;2393;50.560;12.636;2023-07-20T06:05:24;16.80;99.90
4759;DHT22;2393;50.560;12.636;2023-07-20T06:07:55;16.80;99.90
4759;DHT22;2393;50.560;12.636;2023-07-20T06:10:24;16.80;99.90
4759;DHT22;2393;50.560;12.636;2023-07-20T06:12:53;16.90;99.90
4759;DHT22;2393;50.560;12.636;2023-07-20T06:15:27;17.00;99.90
4759;DHT22;2393;50.560;12.636;2023-07-20T06:17:57;17.10;99.90
4759;DHT22;2393;50.560;12.636;2023-07-20T06:20:26;17.20;99.90
4759;DHT22;2393;50.560;12.636;2023-07-20T06:22:54;17.30;99.90
4759;DHT22;2393;50.560;12.636;2023-07-20T06:25:24;17.50;99.90
4759;DHT22;2393;50.560;12.636;2023-07-20T06:27:55;17.50;99.90
4759;DHT22;2393;50.560;12.636;2023-07-20T06:30:24;17.60;99.90
4759;DHT22;2393;50.560;12.636;2023-07-20T06:32:53;17.70;99.90
4759;DHT22;2393;50.560;12.636;2023-07-20T06:35:23;17.80;99.90
4759;DHT22;2393;50.560;12.636;2023-07-20T06:37:52;17.80;99.90
4759;DHT22;2393;50.560;12.636;2023-07-20T06:40:21;17.70;99.90
4759;DHT22;2393;50.560;12.636;2023-07-20T06:42:52;17.70;99.90
4759;DHT22;2393;50.560;12.636;2023-07-20T06:45:25;17.80;99.90
4759;DHT22;2393;50.560;12.636;2023-07-20T06:47:53;17.80;99.90
4759;DHT22;2393;50.560;12.636;2023-07-20T06:50:23;17.80;99.90
4759;DHT22;2393;50.560;12.636;2023-07-20T06:52:54;17.80;99.90
4759;DHT22;2393;50.560;12.636;2023-07-20T06:55:25;17.80;99.90
4759;DHT22;2393;50.560;12.636;2023-07-20T06:57:58;17.70;99.90
4759;DHT22;2393;50.560;12.636;2023-07-20T07:00:27;17.70;99.90
4759;DHT22;2393;50.560;12.636;2023-07-20T07:02:57;17.80;99.90
4759;DHT22;2393;50.560;12.636;2023-07-20T07:05:27;17.90;99.90
4759;DHT22;2393;50.560;12.636;2023-07-20T07:08:02;18.00;99.90
4759;DHT22;2393;50.560;12.636;2023-07-20T07:10:30;18.20;99.90
4759;DHT22;2393;50.560;12.636;2023-07-20T07:12:59;18.20;99.90
4759;DHT22;2393;50.560;12.636;2023-07-20T07:15:29;18.20;99.90
4759;DHT22;2393;50.560;12.636;2023-07-20T07:17:58;18.20;99.90
4759;DHT22;2393;50.560;12.636;2023-07-20T07:20:29;18.30;99.90
4759;DHT22;2393;50.560;12.636;2023-07-20T07:22:58;18.20;99.90
4759;DHT22;2393;50.560;12.636;2023-07-20T07:25:27;18.30;99.90
4759;DHT22;2393;50.560;12.636;2023-07-20T07:27:56;18.40;99.90
4759;DHT22;2393;50.560;12.636;2023-07-20T07:30:25;18.40;99.90
4759;DHT22;2393;50.560;12.636;2023-07-20T07:32:54;18.50;99.90
4759;DHT22;2393;50.560;12.636;2023-07-20T07:35:23;18.60;99.90
4759;DHT22;2393;50.560;12.636;2023-07-20T07:37:53;18.80;99.90
4759;DHT22;2393;50.560;12.636;2023-07-20T07:40:42;19.20;99.90
4759;DHT22;2393;50.560;12.636;2023-07-20T07:43:10;19.60;99.90
4759;DHT22;2393;50.560;12.636;2023-07-20T07:45:40;19.70;99.90
4759;DHT22;2393;50.560;12.636;2023-07-20T07:48:10;20.00;99.90
4759;DHT22;2393;50.560;12.636;2023-07-20T07:50:40;20.10;99.90
4759;DHT22;2393;50.560;12.636;2023-07-20T07:53:10;20.10;99.90
4759;DHT22;2393;50.560;12.636;2023-07-20T07:55:42;20.00;99.90
4759;DHT22;2393;50.560;12.636;2023-07-20T07:58:10;19.90;99.90
4759;DHT22;2393;50.560;12.636;2023-07-20T08:00:39;19.80;99.90
4759;DHT22;2393;50.560;12.636;2023-07-20T08:03:09;19.70;99.90
4759;DHT22;2393;50.560;12.636;2023-07-20T08:05:39;19.60;99.90
4759;DHT22;2393;50.560;12.636;2023-07-20T08:08:07;19.40;99.90
4759;DHT22;2393;50.560;12.636;2023-07-20T08:10:39;19.30;99.90
4759;DHT22;2393;50.560;12.636;2023-07-20T08:13:07;19.20;99.90
4759;DHT22;2393;50.560;12.636;2023-07-20T08:15:36;19.10;99.90
4759;DHT22;2393;50.560;12.636;2023-07-20T08:18:05;19.10;99.90
4759;DHT22;2393;50.560;12.636;2023-07-20T08:20:43;19.00;99.90
4759;DHT22;2393;50.560;12.636;2023-07-20T08:23:12;18.90;99.90
4759;DHT22;2393;50.560;12.636;2023-07-20T08:25:42;18.80;99.90
4759;DHT22;2393;50.560;12.636;2023-07-20T08:28:11;18.90;99.90
4759;DHT22;2393;50.560;12.636;2023-07-20T08:30:41;19.20;99.90
4759;DHT22;2393;50.560;12.636;2023-07-20T08:33:12;19.60;99.90
4759;DHT22;2393;50.560;12.636;2023-07-20T08:35:41;20.10;99.90
4759;DHT22;2393;50.560;12.636;2023-07-20T08:38:10;20.60;99.90
4759;DHT22;2393;50.560;12.636;2023-07-20T08:40:44;21.10;99.90
4759;DHT22;2393;50.560;12.636;2023-07-20T08:43:14;21.40;99.90
4759;DHT22;2393;50.560;12.636;2023-07-20T08:45:45;21.70;99.90
4759;DHT22;2393;50.560;12.636;2023-07-20T08:48:13;21.80;99.90
4759;DHT22;2393;50.560;12.636;2023-07-20T08:50:43;21.90;99.90
4759;DHT22;2393;50.560;12.636;2023-07-20T08:53:12;22.00;99.90
4759;DHT22;2393;50.560;12.636;2023-07-20T08:55:44;21.90;99.90
4759;DHT22;2393;50.560;12.636;2023-07-20T08:58:15;22.00;99.90
4759;DHT22;2393;50.560;12.636;2023-07-20T09:00:44;22.50;99.90
4759;DHT22;2393;50.560;12.636;2023-07-20T09:03:14;22.80;99.90
4759;DHT22;2393;50.560;12.636;2023-07-20T09:05:44;22.70;99.90
4759;DHT22;2393;50.560;12.636;2023-07-20T09:08:13;22.70;99.90
4759;DHT22;2393;50.560;12.636;2023-07-20T09:10:43;22.80;99.90
4759;DHT22;2393;50.560;12.636;2023-07-20T09:13:14;23.00;99.90
4759;DHT22;2393;50.560;12.636;2023-07-20T09:15:48;23.40;99.90
4759;DHT22;2393;50.560;12.636;2023-07-20T09:18:24;23.60;99.90
4759;DHT22;2393;50.560;12.636;2023-07-20T09:20:54;23.70;99.90
4759;DHT22;2393;50.560;12.636;2023-07-20T09:23:31;23.50;99.90
4759;DHT22;2393;50.560;12.636;2023-07-20T09:26:09;23.50;99.90
4759;DHT22;2393;50.560;12.636;2023-07-20T09:28:41;23.30;99.90
4759;DHT22;2393;50.560;12.636;2023-07-20T09:31:18;23.10;99.90
4759;DHT22;2393;50.560;12.636;2023-07-20T09:33:49;23.00;99.90
4759;DHT22;2393;50.560;12.636;2023-07-20T09:36:21;22.90;99.90
4759;DHT22;2393;50.560;12.636;2023-07-20T09:39:09;22.90;99.90
4759;DHT22;2393;50.560;12.636;2023-07-20T09:41:42;22.80;99.90
4759;DHT22;2393;50.560;12.636;2023-07-20T09:44:14;22.70;99.90
4759;DHT22;2393;50.560;12.636;2023-07-20T09:46:47;22.70;99.90
4759;DHT22;2393;50.560;12.636;2023-07-20T09:49:19;22.90;99.90
4759;DHT22;2393;50.560;12.636;2023-07-20T09:51:52;23.10;99.90
4759;DHT22;2393;50.560;12.636;2023-07-20T09:54:22;23.20;99.90
4759;DHT22;2393;50.560;12.636;2023-07-20T09:56:52;23.10;99.90
4759;DHT22;2393;50.560;12.636;2023-07-20T09:59:22;22.90;99.90
4759;DHT22;2393;50.560;12.636;2023-07-20T10:01:52;22.60;99.90
4759;DHT22;2393;50.560;12.636;2023-07-20T10:04:22;22.40;99.90
4759;DHT22;2393;50.560;12.636;2023-07-20T10:06:54;22.00;99.90
4759;DHT22;2393;50.560;12.636;2023-07-20T10:09:24;21.70;99.90
4759;DHT22;2393;50.560;12.636;2023-07-20T10:11:56;21.50;99.90
4759;DHT22;2393;50.560;12.636;2023-07-20T10:14:51;21.50;99.90
4759;DHT22;2393;50.560;12.636;2023-07-20T10:17:21;21.90;99.90
4759;DHT22;2393;50.560;12.636;2023-07-20T10:19:55;22.20;99.90
4759;DHT22;2393;50.560;12.636;2023-07-20T10:22:26;22.50;99.90
4759;DHT22;2393;50.560;12.636;2023-07-20T10:24:55;22.80;99.90
4759;DHT22;2393;50.560;12.636;2023-07-20T10:27:28;23.00;99.90
4759;DHT22;2393;50.560;12.636;2023-07-20T10:29:57;23.30;99.90
4759;DHT22;2393;50.560;12.636;2023-07-20T10:32:28;23.60;99.90
4759;DHT22;2393;50.560;12.636;2023-07-20T10:34:58;24.00;99.90
4759;DHT22;2393;50.560;12.636;2023-07-20T10:37:49;24.20;99.90
4759;DHT22;2393;50.560;12.636;2023-07-20T10:40:27;24.40;99.90
4759;DHT22;2393;50.560;12.636;2023-07-20T10:43:00;24.60;99.90
4759;DHT22;2393;50.560;12.636;2023-07-20T10:45:41;24.70;99.90
4759;DHT22;2393;50.560;12.636;2023-07-20T10:48:13;24.50;99.90
4759;DHT22;2393;50.560;12.636;2023-07-20T10:50:43;24.40;99.90
4759;DHT22;2393;50.560;12.636;2023-07-20T10:53:13;24.40;99.90
4759;DHT22;2393;50.560;12.636;2023-07-20T10:55:43;24.10;99.90
4759;DHT22;2393;50.560;12.636;2023-07-20T10:58:15;23.90;99.90
4759;DHT22;2393;50.560;12.636;2023-07-20T11:01:02;23.70;99.90
4759;DHT22;2393;50.560;12.636;2023-07-20T11:03:31;23.50;99.90
4759;DHT22;2393;50.560;12.636;2023-07-20T11:06:29;23.30;99.90
4759;DHT22;2393;50.560;12.636;2023-07-20T11:09:06;23.20;99.90
4759;DHT22;2393;50.560;12.636;2023-07-20T11:11:37;23.10;99.90
4759;DHT22;2393;50.560;12.636;2023-07-20T11:14:09;23.00;99.90
4759;DHT22;2393;50.560;12.636;2023-07-20T11:16:40;22.90;99.90
4759;DHT22;2393;50.560;12.636;2023-07-20T11:19:17;22.70;99.90
4759;DHT22;2393;50.560;12.636;2023-07-20T11:21:50;22.50;99.90
4759;DHT22;2393;50.560;12.636;2023-07-20T11:24:29;22.30;99.90
4759;DHT22;2393;50.560;12.636;2023-07-20T11:26:59;22.20;99.90
4759;DHT22;2393;50.560;12.636;2023-07-20T11:29:29;22.00;99.90
4759;DHT22;2393;50.560;12.636;2023-07-20T11:32:01;22.10;99.90
4759;DHT22;2393;50.560;12.636;2023-07-20T11:34:33;22.20;99.90
4759;DHT22;2393;50.560;12.636;2023-07-20T11:37:03;22.20;99.90
4759;DHT22;2393;50.560;12.636;2023-07-20T11:39:37;22.10;99.90
4759;DHT22;2393;50.560;12.636;2023-07-20T11:42:06;22.00;99.90
4759;DHT22;2393;50.560;12.636;2023-07-20T11:44:38;21.90;99.90
4759;DHT22;2393;50.560;12.636;2023-07-20T11:47:08;21.90;99.90
4759;DHT22;2393;50.560;12.636;2023-07-20T11:49:38;21.70;99.90
4759;DHT22;2393;50.560;12.636;2023-07-20T11:52:08;21.70;99.90
4759;DHT22;2393;50.560;12.636;2023-07-20T11:54:38;21.70;99.90
4759;DHT22;2393;50.560;12.636;2023-07-20T11:57:16;21.50;99.90
4759;DHT22;2393;50.560;12.636;2023-07-20T11:59:54;21.10;99.90
4759;DHT22;2393;50.560;12.636;2023-07-20T12:02:26;20.70;99.90
4759;DHT22;2393;50.560;12.636;2023-07-20T12:04:56;20.40;99.90
4759;DHT22;2393;50.560;12.636;2023-07-20T12:07:27;20.20;99.90
4759;DHT22;2393;50.560;12.636;2023-07-20T12:10:03;19.90;99.90
4759;DHT22;2393;50.560;12.636;2023-07-20T12:12:32;19.80;99.90
4759;DHT22;2393;50.560;12.636;2023-07-20T12:15:16;19.70;99.90
4759;DHT22;2393;50.560;12.636;2023-07-20T12:17:45;19.60;99.90
4759;DHT22;2393;50.560;12.636;2023-07-20T12:20:27;19.60;99.90
4759;DHT22;2393;50.560;12.636;2023-07-20T12:23:01;19.70;99.90
4759;DHT22;2393;50.560;12.636;2023-07-20T12:25:33;19.80;99.90
4759;DHT22;2393;50.560;12.636;2023-07-20T12:28:05;20.10;99.90
4759;DHT22;2393;50.560;12.636;2023-07-20T12:30:38;20.40;99.90
4759;DHT22;2393;50.560;12.636;2023-07-20T12:33:08;20.70;99.90
4759;DHT22;2393;50.560;12.636;2023-07-20T12:35:37;21.10;99.90
4759;DHT22;2393;50.560;12.636;2023-07-20T12:38:05;21.50;99.90
4759;DHT22;2393;50.560;12.636;2023-07-20T12:40:34;22.00;99.90
4759;DHT22;2393;50.560;12.636;2023-07-20T12:43:03;22.50;99.90
4759;DHT22;2393;50.560;12.636;2023-07-20T12:45:33;22.90;99.90
4759;DHT22;2393;50.560;12.636;2023-07-20T12:48:05;23.50;99.90
4759;DHT22;2393;50.560;12.636;2023-07-20T12:50:34;23.90;99.90
4759;DHT22;2393;50.560;12.636;2023-07-20T12:53:04;24.10;99.90
4759;DHT22;2393;50.560;12.636;2023-07-20T12:55:33;24.30;99.90
4759;DHT22;2393;50.560;12.636;2023-07-20T12:58:02;24.40;99.90
4759;DHT22;2393;50.560;12.636;2023-07-20T13:00:31;24.40;99.90
4759;DHT22;2393;50.560;12.636;2023-07-20T13:03:00;24.40;99.90
4759;DHT22;2393;50.560;12.636;2023-07-20T13:05:36;24.20;99.90
4759;DHT22;2393;50.560;12.636;2023-07-20T13:08:08;24.00;99.90
4759;DHT22;2393;50.560;12.636;2023-07-20T13:10:40;23.80;99.90
4759;DHT22;2393;50.560;12.636;2023-07-20T13:13:09;23.60;99.90
4759;DHT22;2393;50.560;12.636;2023-07-20T13:15:42;23.70;99.90
4759;DHT22;2393;50.560;12.636;2023-07-20T13:18:13;23.90;99.90
4759;DHT22;2393;50.560;12.636;2023-07-20T13:20:43;23.70;99.90
4759;DHT22;2393;50.560;12.636;2023-07-20T13:23:12;23.90;99.90
4759;DHT22;2393;50.560;12.636;2023-07-20T13:25:45;23.80;99.90
4759;DHT22;2393;50.560;12.636;2023-07-20T13:28:14;23.60;99.90
4759;DHT22;2393;50.560;12.636;2023-07-20T13:30:43;23.40;99.90
4759;DHT22;2393;50.560;12.636;2023-07-20T13:33:14;23.10;99.90
4759;DHT22;2393;50.560;12.636;2023-07-20T13:35:47;22.80;99.90
4759;DHT22;2393;50.560;12.636;2023-07-20T13:38:16;22.50;99.90
4759;DHT22;2393;50.560;12.636;2023-07-20T13:40:49;22.20;99.90
4759;DHT22;2393;50.560;12.636;2023-07-20T13:43:19;21.80;99.90
4759;DHT22;2393;50.560;12.636;2023-07-20T13:45:47;21.20;99.90
4759;DHT22;2393;50.560;12.636;2023-07-20T13:48:18;21.00;99.90
4759;DHT22;2393;50.560;12.636;2023-07-20T13:50:55;20.40;99.90
4759;DHT22;2393;50.560;12.636;2023-07-20T13:53:26;20.40;99.90
4759;DHT22;2393;50.560;12.636;2023-07-20T13:56:00;20.20;99.90
4759;DHT22;2393;50.560;12.636;2023-07-20T13:58:34;20.10;99.90
4759;DHT22;2393;50.560;12.636;2023-07-20T14:01:07;20.00;99.90
4759;DHT22;2393;50.560;12.636;2023-07-20T14:03:37;19.90;99.90
4759;DHT22;2393;50.560;12.636;2023-07-20T14:06:07;19.60;99.90
4759;DHT22;2393;50.560;12.636;2023-07-20T14:08:43;19.50;99.90
4759;DHT22;2393;50.560;12.636;2023-07-20T14:11:14;19.40;99.90
4759;DHT22;2393;50.560;12.636;2023-07-20T14:13:48;19.40;99.90
4759;DHT22;2393;50.560;12.636;2023-07-20T14:16:20;19.30;99.90
4759;DHT22;2393;50.560;12.636;2023-07-20T14:18:50;19.30;99.90
4759;DHT22;2393;50.560;12.636;2023-07-20T14:21:21;19.20;99.90
4759;DHT22;2393;50.560;12.636;2023-07-20T14:23:52;19.10;99.90
4759;DHT22;2393;50.560;12.636;2023-07-20T14:26:21;19.10;99.90
4759;DHT22;2393;50.560;12.636;2023-07-20T14:28:50;19.10;99.90
4759;DHT22;2393;50.560;12.636;2023-07-20T14:31:20;19.00;99.90
4759;DHT22;2393;50.560;12.636;2023-07-20T14:33:49;18.90;99.90
4759;DHT22;2393;50.560;12.636;2023-07-20T14:36:21;18.90;99.90
4759;DHT22;2393;50.560;12.636;2023-07-20T14:38:53;18.90;99.90
4759;DHT22;2393;50.560;12.636;2023-07-20T14:41:21;18.80;99.90
4759;DHT22;2393;50.560;12.636;2023-07-20T14:43:50;18.90;99.90
4759;DHT22;2393;50.560;12.636;2023-07-20T14:46:19;19.00;99.90
4759;DHT22;2393;50.560;12.636;2023-07-20T14:48:48;19.10;99.90
4759;DHT22;2393;50.560;12.636;2023-07-20T14:51:16;19.30;99.90
4759;DHT22;2393;50.560;12.636;2023-07-20T14:53:46;19.40;99.90
4759;DHT22;2393;50.560;12.636;2023-07-20T14:56:15;19.40;99.90
4759;DHT22;2393;50.560;12.636;2023-07-20T14:58:44;19.50;99.90
4759;DHT22;2393;50.560;12.636;2023-07-20T15:01:12;19.60;99.90
4759;DHT22;2393;50.560;12.636;2023-07-20T15:03:44;19.70;99.90
4759;DHT22;2393;50.560;12.636;2023-07-20T15:06:13;19.90;99.90
4759;DHT22;2393;50.560;12.636;2023-07-20T15:08:42;20.10;99.90
4759;DHT22;2393;50.560;12.636;2023-07-20T15:11:12;20.20;99.90
4759;DHT22;2393;50.560;12.636;2023-07-20T15:13:41;20.30;99.90
4759;DHT22;2393;50.560;12.636;2023-07-20T15:16:10;20.30;99.90
4759;DHT22;2393;50.560;12.636;2023-07-20T15:18:39;20.40;99.90
4759;DHT22;2393;50.560;12.636;2023-07-20T15:21:15;20.40;99.90
4759;DHT22;2393;50.560;12.636;2023-07-20T15:23:44;20.50;99.90
4759;DHT22;2393;50.560;12.636;2023-07-20T15:26:15;20.50;99.90
4759;DHT22;2393;50.560;12.636;2023-07-20T15:28:44;20.60;99.90
4759;DHT22;2393;50.560;12.636;2023-07-20T15:31:14;20.70;99.90
4759;DHT22;2393;50.560;12.636;2023-07-20T15:33:43;20.80;99.90
4759;DHT22;2393;50.560;12.636;2023-07-20T15:36:11;20.80;99.90
4759;DHT22;2393;50.560;12.636;2023-07-20T15:38:40;21.00;99.90
4759;DHT22;2393;50.560;12.636;2023-07-20T15:41:09;21.20;99.90
4759;DHT22;2393;50.560;12.636;2023-07-20T15:43:41;21.50;99.90
4759;DHT22;2393;50.560;12.636;2023-07-20T15:46:43;21.40;99.90
4759;DHT22;2393;50.560;12.636;2023-07-20T15:49:14;21.10;99.90
4759;DHT22;2393;50.560;12.636;2023-07-20T15:51:43;21.30;99.90
4759;DHT22;2393;50.560;12.636;2023-07-20T15:54:14;21.50;99.90
4759;DHT22;2393;50.560;12.636;2023-07-20T15:56:44;21.70;99.90
4759;DHT22;2393;50.560;12.636;2023-07-20T15:59:15;21.90;99.90
4759;DHT22;2393;50.560;12.636;2023-07-20T16:01:44;22.00;99.90
4759;DHT22;2393;50.560;12.636;2023-07-20T16:04:13;22.10;99.90
4759;DHT22;2393;50.560;12.636;2023-07-20T16:06:43;22.10;99.90
4759;DHT22;2393;50.560;12.636;2023-07-20T16:09:11;22.10;99.90
4759;DHT22;2393;50.560;12.636;2023-07-20T16:11:42;22.00;99.90
4759;DHT22;2393;50.560;12.636;2023-07-20T16:14:11;22.00;99.90
4759;DHT22;2393;50.560;12.636;2023-07-20T16:16:43;22.00;99.90
4759;DHT22;2393;50.560;12.636;2023-07-20T16:19:13;21.90;99.90
4759;DHT22;2393;50.560;12.636;2023-07-20T16:21:42;21.70;99.90
4759;DHT22;2393;50.560;12.636;2023-07-20T16:24:11;21.60;99.90
4759;DHT22;2393;50.560;12.636;2023-07-20T16:26:44;21.60;99.90
4759;DHT22;2393;50.560;12.636;2023-07-20T16:29:13;21.50;99.90
4759;DHT22;2393;50.560;12.636;2023-07-20T16:31:46;21.40;99.90
4759;DHT22;2393;50.560;12.636;2023-07-20T16:34:18;21.40;99.90